Latest Weather Observations for Christmas Island

IDW60801

Issued at 3:53 pm WST Tuesday 16 August 2022 (issued every 10 minutes, with the page automatically refreshed every 10 minutes)

About weather observations | Map of weather stations | Latest weather observations for WA | Other Formats
Station Details ID: 200790 Name: CHRISTMAS ISLAND AERO Lat: -10.45 Lon: 105.69 Height: 261.0 m
Data from the previous 72 hours. | See also: Recent months at Christmas Island
Date/Time
WST
Temp
°C
App
Temp
°C
Dew
Point
°C
Rel
Hum
%
Delta-T
°C
Wind Press
QNH
hPa
Press
MSL
hPa
Rain since
9am
mm
Dir  Spd
km/h
Gust
km/h
Spd
kts
Gust
kts
16/03:30pm 24.9 28.2 23.9 94 0.7 SE 13 22 7 12 1012.7 1011.2 0.2
16/03:00pm 24.7 27.8 23.5 93 0.8 SE 13 22 7 12 1013.1 1011.6 0.2
16/02:30pm 25.5 27.9 23.7 90 1.2 SE 17 22 9 12 1013.5 1012.0 0.0
16/02:00pm 25.4 27.6 23.3 88 1.4 SE 17 22 9 12 1013.7 1012.2 0.0
16/01:30pm 26.6 28.9 24.1 86 1.7 ESE 19 26 10 14 1013.7 1012.2 0.0
16/01:00pm 25.4 27.2 23.3 88 1.4 ESE 19 28 10 15 1014.0 1012.5 0.0
16/12:30pm 25.4 28.1 23.5 89 1.3 ESE 15 22 8 12 1014.4 1013.0 0.0
16/12:00pm 26.5 29.1 24.0 86 1.7 SE 17 24 9 13 1014.5 1013.1 0.0
16/11:30am 25.1 27.3 23.2 89 1.3 SE 17 24 9 13 1014.6 1013.2 0.0
16/11:00am 25.4 28.0 23.3 88 1.4 SE 15 22 8 12 1015.0 1013.6 0.0
16/10:30am 26.2 30.2 24.4 90 1.3 SE 11 20 6 11 1015.3 1013.9 0.0
16/10:00am 25.3 28.6 23.9 92 1.0 SE 13 20 7 11 1015.1 1013.7 0.0
16/09:30am 24.9 28.6 23.9 94 0.7 SE 11 20 6 11 1014.8 1013.4 0.0
16/09:00am 24.7 28.1 24.0 96 0.5 SE 13 19 7 10 1014.6 1013.2 0.0
16/08:30am 24.8 28.7 24.3 97 0.3 SE 11 17 6 9 1014.2 1012.8 0.0
16/08:00am 24.0 27.6 23.7 98 0.2 SE 11 15 6 8 1013.8 1012.3 0.0
16/07:30am 23.7 27.5 23.4 98 0.2 SE 9 13 5 7 1013.7 1012.2 0.0
16/07:00am 23.5 27.2 23.2 98 0.2 SE 9 13 5 7 1013.7 1012.2 0.0
16/06:30am 23.9 27.4 23.6 98 0.2 SE 11 15 6 8 1013.6 1012.1 0.0
16/06:00am 23.6 27.2 23.1 97 0.3 SE 9 13 5 7 1013.3 1011.8 0.0
16/05:30am 23.6 27.2 23.1 97 0.3 SE 9 15 5 8 1013.4 1011.9 0.0
16/05:00am 23.6 27.2 23.1 97 0.3 SE 9 11 5 6 1013.3 1011.8 0.0
16/04:30am 23.5 27.1 23.0 97 0.3 SE 9 13 5 7 1013.5 1012.0 0.0
16/04:00am 23.7 27.4 23.2 97 0.3 SE 9 13 5 7 1013.5 1012.0 0.0
16/03:30am 24.0 26.8 23.7 98 0.2 ESE 15 20 8 11 1013.6 1012.1 0.0
16/03:00am 24.0 27.6 23.7 98 0.2 SE 11 17 6 9 1013.9 1012.4 0.0
16/02:30am 23.8 28.0 23.5 98 0.2 SE 7 11 4 6 1014.2 1012.8 0.0
16/02:00am 24.0 27.8 23.5 97 0.3 SE 9 13 5 7 1014.4 1013.0 0.0
16/01:30am 23.9 28.3 23.4 97 0.3 SE 6 11 3 6 1014.7 1013.3 0.0
16/01:00am 24.1 28.0 23.6 97 0.3 SE 9 13 5 7 1014.7 1013.3 0.0
16/12:30am 24.1 27.6 23.6 97 0.3 SE 11 15 6 8 1014.8 1013.4 0.0
16/12:00am 24.1 28.0 23.6 97 0.3 SE 9 15 5 8 1014.8 1013.4 0.0
 
Date/Time
WST
Temp
°C
App
Temp
°C
Dew
Point
°C
Rel
Hum
%
Delta-T
°C
Wind Press
QNH
hPa
Press
MSL
hPa
Rain since
9am
mm
Dir  Spd
km/h
Gust
km/h
Spd
kts
Gust
kts
15/11:30pm 23.9 28.1 23.4 97 0.3 SE 7 11 4 6 1014.5 1013.1 0.0
15/11:00pm 24.0 28.4 23.5 97 0.3 SE 6 11 3 6 1014.4 1013.0 0.0
15/10:30pm 24.0 27.7 23.3 96 0.5 SE 9 13 5 7 1014.2 1012.8 0.0
15/10:00pm 23.9 28.1 23.2 96 0.5 SE 6 11 3 6 1014.0 1012.5 0.0
15/09:30pm 24.0 28.3 23.3 96 0.5 SE 6 9 3 5 1013.8 1012.3 0.0
15/09:11pm 24.0 27.7 23.3 96 0.5 SE 9 13 5 7 1013.5 1012.0 0.0
15/09:00pm 24.1 27.9 23.4 96 0.5 ESE 9 13 5 7 1013.5 1012.0 0.0
15/08:53pm 24.1 27.9 23.4 96 0.5 ESE 9 13 5 7 1013.4 1011.9 0.0
15/08:30pm 24.0 27.7 23.3 96 0.5 SE 9 13 5 7 1013.0 1011.5 0.0
15/08:00pm 24.0 27.6 23.1 95 0.6 SE 9 13 5 7 1012.5 1011.0 0.0
15/07:30pm 23.9 27.1 23.0 95 0.6 SE 11 15 6 8 1012.1 1010.6 0.0
15/07:20pm 24.0 27.2 23.0 94 0.7 SE 11 15 6 8 1011.9 1010.4 0.0
15/07:00pm 24.2 27.5 23.2 94 0.7 SE 11 17 6 9 1011.7 1010.3 0.0
15/06:30pm 24.5 27.4 23.1 92 1.0 SE 13 17 7 9 1011.6 1010.2 0.0
15/06:00pm 24.8 27.7 23.2 91 1.1 SE 13 17 7 9 1011.5 1010.1 0.0
15/05:30pm 25.2 28.2 23.3 89 1.3 ESE 13 19 7 10 1011.3 1009.9 0.0
15/05:00pm 25.5 28.5 23.4 88 1.4 SE 13 19 7 10 1011.2 1009.8 0.0
15/04:30pm 26.0 28.6 23.3 85 1.9 ESE 15 22 8 12 1011.3 1009.9 0.0
15/04:13pm 26.3 28.8 23.2 83 2.1 ESE 15 20 8 11 1011.3 1009.9 0.0
15/04:10pm 26.1 28.8 22.8 82 2.3 SE 13 20 7 11 1011.4 1010.0 0.0
15/04:00pm 26.1 28.4 22.8 82 2.3 ESE 15 20 8 11 1011.6 1010.2 0.0
15/03:30pm 25.7 28.7 23.4 87 1.6 ESE 13 17 7 9 1012.1 1010.6 0.0
15/03:00pm 25.5 28.3 23.0 86 1.7 ESE 13 19 7 10 1012.6 1011.1 0.0
15/02:51pm 25.6 28.6 23.3 87 1.6 ESE 13 17 7 9 1012.8 1011.3 0.0
15/02:30pm 25.5 28.4 23.2 87 1.6 ESE 13 17 7 9 1012.9 1011.4 0.0
15/02:24pm 25.7 28.6 23.2 86 1.7 E 13 17 7 9 1013.0 1011.5 0.0
15/02:00pm 26.4 29.3 23.1 82 2.3 ENE 13 20 7 11 1013.3 1011.8 0.0
15/01:40pm 26.5 29.5 23.4 83 2.1 E 13 19 7 10 1013.5 1012.0 0.0
15/01:30pm 26.3 29.1 23.0 82 2.3 ESE 13 19 7 10 1013.6 1012.1 0.0
15/01:04pm 26.3 28.7 23.0 82 2.3 ESE 15 19 8 10 1013.9 1012.4 0.0
15/01:00pm 26.4 28.8 22.9 81 2.4 ESE 15 19 8 10 1014.0 1012.5 0.0
15/12:52pm 26.7 29.4 22.8 79 2.7 ENE 13 17 7 9 1014.1 1012.7 0.0
15/12:30pm 26.3 29.1 23.0 82 2.3 E 13 17 7 9 1014.3 1012.9 0.0
15/12:00pm 26.1 29.0 23.2 84 2.0 E 13 19 7 10 1014.5 1013.1 0.0
15/11:30am 27.1 30.6 23.6 81 2.4 E 11 17 6 9 1014.7 1013.3 0.0
15/11:10am 26.1 29.5 23.4 85 1.9 ESE 11 17 6 9 1014.5 1013.1 0.0
15/11:08am 25.9 29.2 23.2 85 1.9 ESE 11 17 6 9 1014.5 1013.1 0.0
15/11:00am 25.5 28.1 22.6 84 2.0 E 13 17 7 9 1014.6 1013.2 0.0
15/10:30am 25.9 29.2 23.2 85 1.9 ESE 11 15 6 8 1014.4 1013.0 0.0
15/10:00am 26.0 29.5 23.5 86 1.7 E 11 15 6 8 1014.8 1013.4 0.0
15/09:30am 24.9 29.0 23.9 94 0.7 ESE 9 13 5 7 1014.8 1013.4 0.0
15/09:00am 24.3 28.2 23.6 96 0.5 ESE 9 13 5 7 1014.5 1013.1 0.0
15/08:30am 24.3 28.6 23.6 96 0.5 SE 7 13 4 7 1014.0 1012.5 0.0
15/08:00am 23.9 28.1 23.4 97 0.3 SE 7 11 4 6 1013.6 1012.1 0.0
15/07:30am 23.5 27.1 23.0 97 0.3 ESE 9 11 5 6 1013.4 1011.9 0.0
15/07:14am 23.5 27.1 23.0 97 0.3 ESE 9 13 5 7 1013.1 1011.6 0.0
15/07:02am 23.3 26.8 22.8 97 0.3 SE 9 11 5 6 1012.9 1011.4 0.0
15/07:00am 23.3 26.8 22.8 97 0.3 SE 9 11 5 6 1012.9 1011.4 0.0
15/06:30am 23.5 27.1 23.0 97 0.3 SE 9 13 5 7 1012.7 1011.2 0.0
15/06:00am 23.5 27.0 22.8 96 0.5 SE 9 15 5 8 1012.4 1010.9 0.0
15/05:30am 23.5 26.6 22.8 96 0.5 ESE 11 13 6 7 1012.2 1010.7 0.0
15/05:00am 23.5 26.6 22.8 96 0.5 ESE 11 17 6 9 1012.3 1010.8 0.0
15/04:30am 23.5 26.6 22.8 96 0.5 ESE 11 15 6 8 1012.2 1010.7 0.0
15/04:00am 23.6 26.3 22.8 95 0.5 E 13 17 7 9 1012.3 1010.8 0.0
15/03:30am 23.6 26.3 22.8 95 0.5 ESE 13 17 7 9 1012.7 1011.2 0.0
15/03:00am 23.8 27.0 23.1 96 0.5 ESE 11 15 6 8 1013.1 1011.6 0.0
15/02:30am 23.7 26.8 22.9 95 0.5 E 11 15 6 8 1013.5 1012.0 0.0
15/02:00am 23.9 26.7 23.0 95 0.6 E 13 19 7 10 1013.5 1012.0 0.0
15/01:30am 24.0 26.5 23.1 95 0.6 ENE 15 17 8 9 1013.8 1012.3 0.0
15/01:00am 23.8 26.6 23.0 95 0.5 E 13 17 7 9 1013.8 1012.3 0.0
15/12:30am 23.9 26.7 23.0 95 0.6 E 13 17 7 9 1013.9 1012.4 0.0
15/12:00am 24.0 26.0 23.0 94 0.7 E 17 24 9 13 1014.1 1012.7 0.0
 
Date/Time
WST
Temp
°C
App
Temp
°C
Dew
Point
°C
Rel
Hum
%
Delta-T
°C
Wind Press
QNH
hPa
Press
MSL
hPa
Rain since
9am
mm
Dir  Spd
km/h
Gust
km/h
Spd
kts
Gust
kts
14/11:30pm 23.9 26.6 22.9 94 0.7 E 13 19 7 10 1014.0 1012.5 0.0
14/11:00pm 24.0 26.4 23.0 94 0.7 E 15 19 8 10 1014.1 1012.7 0.0
14/10:30pm 24.1 26.8 22.9 93 0.8 E 13 17 7 9 1014.2 1012.8 0.0
14/10:00pm 24.0 26.7 22.8 93 0.8 E 13 19 7 10 1014.1 1012.7 0.0
14/09:32pm 23.9 26.0 22.5 92 0.9 E 15 20 8 11 1013.9 1012.4 0.0
14/09:30pm 23.9 26.0 22.5 92 0.9 E 15 19 8 10 1013.9 1012.4 0.0
14/09:00pm 24.1 26.4 22.7 92 0.9 E 15 20 8 11 1013.5 1012.0 0.0
14/08:30pm 24.0 25.8 22.6 92 0.9 ESE 17 22 9 12 1012.8 1011.3 0.0
14/08:00pm 23.9 25.7 22.5 92 0.9 E 17 26 9 14 1012.3 1010.8 0.0
14/07:30pm 23.9 25.7 22.5 92 0.9 ESE 17 22 9 12 1012.0 1010.5 0.0
14/07:00pm 24.1 25.9 22.5 91 1.1 ESE 17 24 9 13 1011.6 1010.2 0.0
14/06:30pm 24.1 25.8 22.4 90 1.1 SE 17 22 9 12 1011.2 1009.8 0.0
14/06:00pm 24.3 26.5 22.6 90 1.2 SE 15 24 8 13 1010.8 1009.4 0.0
14/05:30pm 24.6 26.5 22.7 89 1.3 SE 17 24 9 13 1010.6 1009.1 0.0
14/05:00pm 24.7 26.3 22.8 89 1.3 SE 19 26 10 14 1010.4 1008.9 0.0
14/04:30pm 24.9 26.3 22.8 88 1.4 ESE 20 28 11 15 1010.5 1009.0 0.0
14/04:00pm 24.7 26.0 22.6 88 1.4 SE 20 30 11 16 1010.5 1009.0 0.0
14/03:30pm 25.1 25.7 22.8 87 1.6 SE 24 32 13 17 1010.7 1009.3 0.0
14/03:00pm 24.9 26.2 22.6 87 1.6 SSE 20 30 11 16 1011.3 1009.9 0.0
14/02:30pm 25.4 26.8 22.9 86 1.7 SE 20 26 11 14 1011.7 1010.3 0.0
14/02:00pm 25.6 27.0 22.9 85 1.8 SE 20 28 11 15 1012.1 1010.6 0.0
14/01:30pm 25.3 26.9 22.8 86 1.7 SE 19 30 10 16 1012.6 1011.1 0.0
14/01:00pm 25.3 26.6 22.4 84 2.0 ESE 19 28 10 15 1012.8 1011.3 0.0
14/12:30pm 25.8 27.5 23.1 85 1.8 ESE 19 24 10 13 1013.1 1011.6 0.0
14/12:00pm 25.6 27.1 22.7 84 2.0 SE 19 28 10 15 1013.3 1011.8 0.0
14/11:30am 25.2 27.0 22.5 85 1.8 ESE 17 22 9 12 1013.6 1012.1 0.0
14/11:00am 25.1 26.7 22.2 84 2.0 ESE 17 24 9 13 1013.8 1012.3 0.0
14/10:30am 25.2 26.8 22.9 87 1.6 ESE 19 24 10 13 1014.0 1012.5 0.0
14/10:00am 24.7 26.8 22.4 87 1.6 ESE 15 24 8 13 1013.9 1012.4 0.0
14/09:47am 24.8 26.6 22.5 87 1.6 ESE 17 22 9 12 1013.9 1012.4 0.0
14/09:30am 24.4 26.2 22.5 89 1.3 ESE 17 24 9 13 1013.7 1012.2 0.0
14/09:00am 24.5 26.3 22.6 89 1.3 ESE 17 24 9 13 1013.3 1011.8 0.0
14/08:48am 24.2 26.3 22.5 90 1.2 E 15 20 8 11 1013.1 1011.6 0.0
14/08:30am 24.0 26.6 22.6 92 0.9 ESE 13 20 7 11 1012.9 1011.4 0.0
14/08:21am 23.8 26.3 22.4 92 0.9 SE 13 19 7 10 1012.8 1011.3 0.0
14/08:00am 23.5 26.3 22.3 93 0.8 SE 11 17 6 9 1012.6 1011.1 0.0
14/07:30am 23.2 25.9 22.2 94 0.7 SE 11 17 6 9 1012.2 1010.7 0.0
14/07:00am 23.2 25.6 22.2 94 0.7 SE 13 17 7 9 1012.0 1010.5 0.0
14/06:30am 23.1 25.4 22.1 94 0.7 SE 13 17 7 9 1011.9 1010.4 0.0
14/06:00am 23.1 25.7 21.9 93 0.8 SE 11 17 6 9 1012.1 1010.6 0.0
14/05:30am 23.1 25.7 21.9 93 0.8 SSE 11 17 6 9 1011.7 1010.3 0.0
14/05:00am 23.1 25.7 21.9 93 0.8 SSE 11 17 6 9 1011.7 1010.3 0.0
14/04:30am 23.3 25.6 22.1 93 0.8 SSE 13 19 7 10 1011.7 1010.3 0.0
14/04:00am 23.2 25.4 21.8 92 0.9 SE 13 19 7 10 1011.9 1010.4 0.0
14/03:30am 23.2 25.4 21.8 92 0.9 SE 13 19 7 10 1011.9 1010.4 0.0
14/03:02am 23.1 25.2 21.7 92 0.9 SE 13 20 7 11 1012.2 1010.7 0.0
14/03:00am 23.1 25.2 21.7 92 0.9 SE 13 19 7 10 1012.2 1010.7 0.0
14/02:50am 22.9 25.7 21.5 92 0.9 SE 9 15 5 8 1012.2 1010.7 0.0
14/02:30am 23.0 25.8 21.6 92 0.9 SE 9 15 5 8 1012.3 1010.8 0.0
14/02:00am 23.2 25.2 21.6 91 1.1 SE 13 19 7 10 1012.6 1011.1 0.0
14/01:30am 23.1 25.5 21.5 91 1.1 SE 11 17 6 9 1013.0 1011.5 0.0
14/01:00am 23.2 26.0 21.5 90 1.1 SE 9 15 5 8 1013.3 1011.8 0.0
14/12:47am 23.1 25.7 21.2 89 1.3 SE 9 15 5 8 1013.4 1011.9 0.0
14/12:30am 23.1 25.2 21.0 88 1.4 SE 11 17 6 9 1013.5 1012.0 0.0
14/12:00am 23.1 25.4 20.6 86 1.6 SE 9 13 5 7 1013.7 1012.2 0.0
 
Date/Time
WST
Temp
°C
App
Temp
°C
Dew
Point
°C
Rel
Hum
%
Delta-T
°C
Wind Press
QNH
hPa
Press
MSL
hPa
Rain since
9am
mm
Dir  Spd
km/h
Gust
km/h
Spd
kts
Gust
kts
13/11:30pm 23.4 25.8 20.9 86 1.7 SE 9 13 5 7 1014.2 1012.8 0.0
13/11:00pm 23.7 26.1 20.8 84 1.9 SE 9 13 5 7 1014.5 1013.1 0.0
13/10:30pm 23.9 25.4 20.6 82 2.2 SE 13 20 7 11 1014.2 1012.8 0.0
13/10:00pm 24.0 25.9 20.5 81 2.3 SE 11 17 6 9 1014.0 1012.5 0.0
13/09:30pm 23.9 26.1 20.4 81 2.3 SE 9 15 5 8 1013.8 1012.3 0.0
13/09:00pm 23.7 25.3 20.0 80 2.4 SE 11 17 6 9 1013.1 1011.6 0.0
13/08:30pm 24.0 25.5 19.7 77 2.8 ESE 11 19 6 10 1012.8 1011.3 0.0
13/08:00pm 24.2 25.1 19.3 74 3.2 ESE 13 22 7 12 1012.3 1010.8 0.0
13/07:30pm 24.1 24.5 19.8 77 2.8 ESE 17 24 9 13 1011.9 1010.4 0.0
13/07:00pm 24.1 25.1 20.2 79 2.6 ESE 15 26 8 14 1011.4 1010.0 0.0
13/06:30pm 24.3 25.0 20.4 79 2.6 SE 17 26 9 14 1011.2 1009.8 0.0
13/06:00pm 24.7 25.5 20.6 78 2.7 SE 17 26 9 14 1010.7 1009.3 0.0
13/05:30pm 25.0 25.4 20.7 77 2.8 SE 19 28 10 15 1010.5 1009.0 0.0
13/05:00pm 25.4 25.8 20.9 76 3.0 SE 20 32 11 17 1010.5 1009.0 0.0

Other formats

Comma delimited format used in spreadsheet applications
http://www.bom.gov.au/fwo/IDW60801/IDW60801.96995.axf

JavaScript Object Notation format (JSON) in row-major order
http://www.bom.gov.au/fwo/IDW60801/IDW60801.96995.json

Data quality

Most of these data are generated automatically and are frequently updated. Quality checks on data are not normally performed. It is possible for incorrect values to appear. Refer to information at About Latest Weather Observations and please check the disclaimer before using these data.